sensor_id;sensor_type;location;lat;lon;timestamp;temperature;humidity
50957;DHT22;55361;50.876;20.634;2022-07-31T00:00:15;23;97
50957;DHT22;55361;50.876;20.634;2022-07-31T00:07:15;24;85
50957;DHT22;55361;50.876;20.634;2022-07-31T00:14:05;24;85
50957;DHT22;55361;50.876;20.634;2022-07-31T00:21:18;24;85
50957;DHT22;55361;50.876;20.634;2022-07-31T00:28:29;24;85
50957;DHT22;55361;50.876;20.634;2022-07-31T00:42:02;23;98
50957;DHT22;55361;50.876;20.634;2022-07-31T00:49:31;23;98
50957;DHT22;55361;50.876;20.634;2022-07-31T00:56:18;23;98
50957;DHT22;55361;50.876;20.634;2022-07-31T01:00:00;23;98
50957;DHT22;55361;50.876;20.634;2022-07-31T01:07:17;24;87
50957;DHT22;55361;50.876;20.634;2022-07-31T01:14:21;24;87
50957;DHT22;55361;50.876;20.634;2022-07-31T01:35:37;23;91
50957;DHT22;55361;50.876;20.634;2022-07-31T01:42:18;23;91
50957;DHT22;55361;50.876;20.634;2022-07-31T01:49:35;23;91
50957;DHT22;55361;50.876;20.634;2022-07-31T01:56:28;23;91
50957;DHT22;55361;50.876;20.634;2022-07-31T02:00:08;23;91
50957;DHT22;55361;50.876;20.634;2022-07-31T02:07:02;22;86
50957;DHT22;55361;50.876;20.634;2022-07-31T02:14:28;22;86
50957;DHT22;55361;50.876;20.634;2022-07-31T02:21:20;22;86
50957;DHT22;55361;50.876;20.634;2022-07-31T02:28:45;22;86
50957;DHT22;55361;50.876;20.634;2022-07-31T02:35:23;22;88
50957;DHT22;55361;50.876;20.634;2022-07-31T02:42:21;22;88
50957;DHT22;55361;50.876;20.634;2022-07-31T02:49:21;22;88
50957;DHT22;55361;50.876;20.634;2022-07-31T02:56:22;22;88
50957;DHT22;55361;50.876;20.634;2022-07-31T03:00:37;22;88
50957;DHT22;55361;50.876;20.634;2022-07-31T03:07:17;22;91
50957;DHT22;55361;50.876;20.634;2022-07-31T03:14:13;22;91
50957;DHT22;55361;50.876;20.634;2022-07-31T03:21:05;22;91
50957;DHT22;55361;50.876;20.634;2022-07-31T03:28:20;22;91
50957;DHT22;55361;50.876;20.634;2022-07-31T03:35:14;23;91
50957;DHT22;55361;50.876;20.634;2022-07-31T03:42:03;23;91
50957;DHT22;55361;50.876;20.634;2022-07-31T03:49:26;23;91
50957;DHT22;55361;50.876;20.634;2022-07-31T03:56:27;23;91
50957;DHT22;55361;50.876;20.634;2022-07-31T04:00:26;23;91
50957;DHT22;55361;50.876;20.634;2022-07-31T04:07:03;23;92
50957;DHT22;55361;50.876;20.634;2022-07-31T04:14:16;23;92
50957;DHT22;55361;50.876;20.634;2022-07-31T04:21:05;23;92
50957;DHT22;55361;50.876;20.634;2022-07-31T04:28:17;23;92
50957;DHT22;55361;50.876;20.634;2022-07-31T04:35:08;22;92
50957;DHT22;55361;50.876;20.634;2022-07-31T04:42:06;22;92
50957;DHT22;55361;50.876;20.634;2022-07-31T04:49:24;22;92
50957;DHT22;55361;50.876;20.634;2022-07-31T04:56:51;22;92
50957;DHT22;55361;50.876;20.634;2022-07-31T05:00:20;22;92
50957;DHT22;55361;50.876;20.634;2022-07-31T05:07:16;22;92
50957;DHT22;55361;50.876;20.634;2022-07-31T05:14:14;22;92
50957;DHT22;55361;50.876;20.634;2022-07-31T05:21:15;22;92
50957;DHT22;55361;50.876;20.634;2022-07-31T05:28:17;22;92
50957;DHT22;55361;50.876;20.634;2022-07-31T05:35:16;22;92
50957;DHT22;55361;50.876;20.634;2022-07-31T05:42:02;22;92
50957;DHT22;55361;50.876;20.634;2022-07-31T05:49:02;22;92
50957;DHT22;55361;50.876;20.634;2022-07-31T05:56:21;22;92
50957;DHT22;55361;50.876;20.634;2022-07-31T06:00:09;22;92
50957;DHT22;55361;50.876;20.634;2022-07-31T06:07:02;22;93
50957;DHT22;55361;50.876;20.634;2022-07-31T06:14:16;22;93
50957;DHT22;55361;50.876;20.634;2022-07-31T06:21:03;22;93
50957;DHT22;55361;50.876;20.634;2022-07-31T06:28:16;22;93
50957;DHT22;55361;50.876;20.634;2022-07-31T06:35:19;22.41;93
50957;DHT22;55361;50.876;20.634;2022-07-31T06:42:21;22.41;93
50957;DHT22;55361;50.876;20.634;2022-07-31T06:49:18;22.41;93
50957;DHT22;55361;50.876;20.634;2022-07-31T06:56:14;22.41;93
50957;DHT22;55361;50.876;20.634;2022-07-31T07:00:22;22.41;93
50957;DHT22;55361;50.876;20.634;2022-07-31T07:14:17;22.41;93
50957;DHT22;55361;50.876;20.634;2022-07-31T07:21:17;22.41;93
50957;DHT22;55361;50.876;20.634;2022-07-31T07:28:02;22.41;93
50957;DHT22;55361;50.876;20.634;2022-07-31T07:42:14;22.41;93
50957;DHT22;55361;50.876;20.634;2022-07-31T07:49:06;22.41;93
50957;DHT22;55361;50.876;20.634;2022-07-31T07:56:19;22.41;93
50957;DHT22;55361;50.876;20.634;2022-07-31T08:00:11;22.41;93
50957;DHT22;55361;50.876;20.634;2022-07-31T08:14:03;22;93
50957;DHT22;55361;50.876;20.634;2022-07-31T08:21:18;22;93
50957;DHT22;55361;50.876;20.634;2022-07-31T08:28:15;22;93
50957;DHT22;55361;50.876;20.634;2022-07-31T08:35:03;22;93
50957;DHT22;55361;50.876;20.634;2022-07-31T08:42:20;22;93
50957;DHT22;55361;50.876;20.634;2022-07-31T08:49:19;22;93
50957;DHT22;55361;50.876;20.634;2022-07-31T08:56:02;22;93
50957;DHT22;55361;50.876;20.634;2022-07-31T09:00:04;22;93
50957;DHT22;55361;50.876;20.634;2022-07-31T09:14:31;22;94
50957;DHT22;55361;50.876;20.634;2022-07-31T09:21:22;22;94
50957;DHT22;55361;50.876;20.634;2022-07-31T09:28:07;22;94
50957;DHT22;55361;50.876;20.634;2022-07-31T09:35:10;22;94
50957;DHT22;55361;50.876;20.634;2022-07-31T09:42:35;22;94
50957;DHT22;55361;50.876;20.634;2022-07-31T09:49:03;22;94
50957;DHT22;55361;50.876;20.634;2022-07-31T09:56:16;22;94
50957;DHT22;55361;50.876;20.634;2022-07-31T10:00:25;22;94
50957;DHT22;55361;50.876;20.634;2022-07-31T10:14:21;22;94
50957;DHT22;55361;50.876;20.634;2022-07-31T10:21:35;22;94
50957;DHT22;55361;50.876;20.634;2022-07-31T10:28:06;22;94
50957;DHT22;55361;50.876;20.634;2022-07-31T10:35:20;22;94
50957;DHT22;55361;50.876;20.634;2022-07-31T10:49:46;22;93
50957;DHT22;55361;50.876;20.634;2022-07-31T10:56:40;22;93
50957;DHT22;55361;50.876;20.634;2022-07-31T11:00:09;22;93
50957;DHT22;55361;50.876;20.634;2022-07-31T11:07:24;22;93
50957;DHT22;55361;50.876;20.634;2022-07-31T11:14:15;22;93
50957;DHT22;55361;50.876;20.634;2022-07-31T11:21:03;22;93
50957;DHT22;55361;50.876;20.634;2022-07-31T11:28:34;22;93
50957;DHT22;55361;50.876;20.634;2022-07-31T11:35:32;22;93
50957;DHT22;55361;50.876;20.634;2022-07-31T11:42:07;22;93
50957;DHT22;55361;50.876;20.634;2022-07-31T11:49:05;22;93
50957;DHT22;55361;50.876;20.634;2022-07-31T11:56:18;22;93
50957;DHT22;55361;50.876;20.634;2022-07-31T12:00:10;22;93
50957;DHT22;55361;50.876;20.634;2022-07-31T12:07:17;22;93
50957;DHT22;55361;50.876;20.634;2022-07-31T12:14:05;22;93
50957;DHT22;55361;50.876;20.634;2022-07-31T12:21:06;22;93
50957;DHT22;55361;50.876;20.634;2022-07-31T12:28:25;22;93
50957;DHT22;55361;50.876;20.634;2022-07-31T12:35:20;22;93
50957;DHT22;55361;50.876;20.634;2022-07-31T12:42:21;23;93
50957;DHT22;55361;50.876;20.634;2022-07-31T12:49:06;23;93
50957;DHT22;55361;50.876;20.634;2022-07-31T12:56:11;23;93
50957;DHT22;55361;50.876;20.634;2022-07-31T13:00:12;23;93
50957;DHT22;55361;50.876;20.634;2022-07-31T13:07:17;23;93
50957;DHT22;55361;50.876;20.634;2022-07-31T13:14:03;23;90
50957;DHT22;55361;50.876;20.634;2022-07-31T13:21:13;23;90
50957;DHT22;55361;50.876;20.634;2022-07-31T13:28:15;23;90
50957;DHT22;55361;50.876;20.634;2022-07-31T13:35:07;23;90
50957;DHT22;55361;50.876;20.634;2022-07-31T13:42:06;23;91
50957;DHT22;55361;50.876;20.634;2022-07-31T13:49:19;23;91
50957;DHT22;55361;50.876;20.634;2022-07-31T13:56:03;23;91
50957;DHT22;55361;50.876;20.634;2022-07-31T14:00:04;23;91
50957;DHT22;55361;50.876;20.634;2022-07-31T14:07:08;23;91
50957;DHT22;55361;50.876;20.634;2022-07-31T14:14:16;22;92
50957;DHT22;55361;50.876;20.634;2022-07-31T14:21:18;22;92
50957;DHT22;55361;50.876;20.634;2022-07-31T14:28:06;22;92
50957;DHT22;55361;50.876;20.634;2022-07-31T14:35:21;22;92
50957;DHT22;55361;50.876;20.634;2022-07-31T14:42:03;22;90
50957;DHT22;55361;50.876;20.634;2022-07-31T14:49:18;22;90
50957;DHT22;55361;50.876;20.634;2022-07-31T14:56:02;22;90
50957;DHT22;55361;50.876;20.634;2022-07-31T15:00:25;22;90
50957;DHT22;55361;50.876;20.634;2022-07-31T15:07:06;22;90
50957;DHT22;55361;50.876;20.634;2022-07-31T15:21:02;23;90
50957;DHT22;55361;50.876;20.634;2022-07-31T15:28:04;23;90
50957;DHT22;55361;50.876;20.634;2022-07-31T15:35:04;23;90
50957;DHT22;55361;50.876;20.634;2022-07-31T15:42:03;24;85
50957;DHT22;55361;50.876;20.634;2022-07-31T15:49:04;24;85
50957;DHT22;55361;50.876;20.634;2022-07-31T15:56:04;24;85
50957;DHT22;55361;50.876;20.634;2022-07-31T16:00:10;24;85
50957;DHT22;55361;50.876;20.634;2022-07-31T16:07:04;24;85
50957;DHT22;55361;50.876;20.634;2022-07-31T16:14:02;24;80
50957;DHT22;55361;50.876;20.634;2022-07-31T16:21:04;24;80
50957;DHT22;55361;50.876;20.634;2022-07-31T16:28:05;24;80
50957;DHT22;55361;50.876;20.634;2022-07-31T16:35:02;24;80
50957;DHT22;55361;50.876;20.634;2022-07-31T16:49:19;25;76
50957;DHT22;55361;50.876;20.634;2022-07-31T16:56:18;25;76
50957;DHT22;55361;50.876;20.634;2022-07-31T17:00:05;25;76
50957;DHT22;55361;50.876;20.634;2022-07-31T17:07:05;25;76
50957;DHT22;55361;50.876;20.634;2022-07-31T17:21:04;25;75
50957;DHT22;55361;50.876;20.634;2022-07-31T17:28:16;25;75
50957;DHT22;55361;50.876;20.634;2022-07-31T17:35:22;25;75
50957;DHT22;55361;50.876;20.634;2022-07-31T17:49:30;24;77
50957;DHT22;55361;50.876;20.634;2022-07-31T17:56:17;24;77
50957;DHT22;55361;50.876;20.634;2022-07-31T18:00:06;24;77
50957;DHT22;55361;50.876;20.634;2022-07-31T18:07:07;24;77
50957;DHT22;55361;50.876;20.634;2022-07-31T18:21:03;23;81
50957;DHT22;55361;50.876;20.634;2022-07-31T18:28:17;23;81
50957;DHT22;55361;50.876;20.634;2022-07-31T18:35:06;23;81
50957;DHT22;55361;50.876;20.634;2022-07-31T18:49:31;22;86
50957;DHT22;55361;50.876;20.634;2022-07-31T18:56:18;22;86
50957;DHT22;55361;50.876;20.634;2022-07-31T19:00:13;22;86
50957;DHT22;55361;50.876;20.634;2022-07-31T19:07:16;22;86
50957;DHT22;55361;50.876;20.634;2022-07-31T19:21:19;22;86
50957;DHT22;55361;50.876;20.634;2022-07-31T19:28:06;22;86
50957;DHT22;55361;50.876;20.634;2022-07-31T19:35:05;22;86
50957;DHT22;55361;50.876;20.634;2022-07-31T19:42:16;22;86
50957;DHT22;55361;50.876;20.634;2022-07-31T19:49:05;22;86
50957;DHT22;55361;50.876;20.634;2022-07-31T19:56:19;22;86
50957;DHT22;55361;50.876;20.634;2022-07-31T20:00:16;22;86
50957;DHT22;55361;50.876;20.634;2022-07-31T20:07:17;22;86
50957;DHT22;55361;50.876;20.634;2022-07-31T20:21:14;22;85
50957;DHT22;55361;50.876;20.634;2022-07-31T20:28:17;22;85
50957;DHT22;55361;50.876;20.634;2022-07-31T20:35:16;22;85
50957;DHT22;55361;50.876;20.634;2022-07-31T20:42:13;22;85
50957;DHT22;55361;50.876;20.634;2022-07-31T20:49:05;22;85
50957;DHT22;55361;50.876;20.634;2022-07-31T20:56:04;22;85
50957;DHT22;55361;50.876;20.634;2022-07-31T21:00:04;22;85
50957;DHT22;55361;50.876;20.634;2022-07-31T21:07:14;22;85
50957;DHT22;55361;50.876;20.634;2022-07-31T21:21:17;22;85
50957;DHT22;55361;50.876;20.634;2022-07-31T21:28:10;22;85
50957;DHT22;55361;50.876;20.634;2022-07-31T21:35:07;22;85
50957;DHT22;55361;50.876;20.634;2022-07-31T21:42:09;22;85
50957;DHT22;55361;50.876;20.634;2022-07-31T21:49:02;22;85
50957;DHT22;55361;50.876;20.634;2022-07-31T21:56:27;22;85
50957;DHT22;55361;50.876;20.634;2022-07-31T22:00:17;22;85
50957;DHT22;55361;50.876;20.634;2022-07-31T22:07:40;22;85
50957;DHT22;55361;50.876;20.634;2022-07-31T22:14:14;24.72;86
50957;DHT22;55361;50.876;20.634;2022-07-31T22:21:09;24.72;86
50957;DHT22;55361;50.876;20.634;2022-07-31T22:28:05;24.72;86
50957;DHT22;55361;50.876;20.634;2022-07-31T22:35:19;24;86
50957;DHT22;55361;50.876;20.634;2022-07-31T22:42:08;24;86
50957;DHT22;55361;50.876;20.634;2022-07-31T22:49:29;24;86
50957;DHT22;55361;50.876;20.634;2022-07-31T22:56:05;24;86
50957;DHT22;55361;50.876;20.634;2022-07-31T23:07:14;23;85
50957;DHT22;55361;50.876;20.634;2022-07-31T23:14:12;23;85
50957;DHT22;55361;50.876;20.634;2022-07-31T23:21:02;23;85
50957;DHT22;55361;50.876;20.634;2022-07-31T23:28:05;23;85
50957;DHT22;55361;50.876;20.634;2022-07-31T23:35:16;23;85
50957;DHT22;55361;50.876;20.634;2022-07-31T23:49:04;23;85
50957;DHT22;55361;50.876;20.634;2022-07-31T23:56:17;23;85
